Time;durP1;ratioP1;P1;durP2;ratioP2;P2;SDS_P1;SDS_P2;PMS_P1;PMS_P2;Temp;Humidity;BMP_temperature;BMP_pressure;BME280_temperature;BME280_humidity;BME280_pressure;Samples;Min_cycle;Max_cycle;Signal;HPM_P1;HPM_P2
2023/10/17 00:02:27;;;;;;;8.40;5.23;;;;;;;;;;5027196;28;20041;-60
2023/10/17 00:04:53;;;;;;;10.80;5.50;;;;;;;;;;5029582;28;20041;-59
2023/10/17 00:07:20;;;;;;;8.85;4.93;;;;;;;;;;5032554;28;20619;-59
2023/10/17 00:09:48;;;;;;;7.95;4.82;;;;;;;;;;5036056;28;20040;-58
2023/10/17 00:17:22;;;;;;;10.20;5.40;;;;;;;;;;5036990;28;20507;-59
2023/10/17 00:19:51;;;;;;;10.00;5.13;;;;;;;;;;5041601;28;20059;-59
2023/10/17 00:22:23;;;;;;;9.87;5.20;;;;;;;;;;5033105;28;20033;-58
2023/10/17 00:25:09;;;;;;;9.57;5.68;;;;;;;;;;5028769;28;20037;-60
2023/10/17 00:27:35;;;;;;;10.00;5.18;;;;;;;;;;5041177;28;20037;-60
2023/10/17 00:30:01;;;;;;;8.38;4.78;;;;;;;;;;5033646;28;20037;-60
2023/10/17 00:32:31;;;;;;;7.38;3.92;;;;;;;;;;5035221;28;20667;-60
2023/10/17 00:34:58;;;;;;;7.25;4.05;;;;;;;;;;5032931;28;20045;-60
2023/10/17 00:37:30;;;;;;;8.35;3.95;;;;;;;;;;5040731;28;20501;-60
2023/10/17 00:39:59;;;;;;;7.97;4.65;;;;;;;;;;5036529;28;20035;-59
2023/10/17 00:42:29;;;;;;;7.57;4.15;;;;;;;;;;5032211;28;20057;-59
2023/10/17 00:44:55;;;;;;;6.88;3.88;;;;;;;;;;5022225;28;20037;-59
2023/10/17 00:47:22;;;;;;;8.80;4.28;;;;;;;;;;5033233;28;20021;-59
2023/10/17 00:49:50;;;;;;;8.15;3.90;;;;;;;;;;5035179;28;20037;-59
2023/10/17 00:52:29;;;;;;;6.05;3.67;;;;;;;;;;5026202;28;20030;-59
2023/10/17 00:54:55;;;;;;;8.27;3.75;;;;;;;;;;5025631;28;20519;-58
2023/10/17 00:57:26;;;;;;;5.72;3.55;;;;;;;;;;5028782;28;20034;-59
2023/10/17 00:59:56;;;;;;;8.20;3.88;;;;;;;;;;5024361;28;20469;-59
2023/10/17 01:02:24;;;;;;;7.38;4.20;;;;;;;;;;5023214;28;20505;-59
2023/10/17 01:04:52;;;;;;;7.07;4.00;;;;;;;;;;5008146;28;20037;-59
2023/10/17 01:07:34;;;;;;;8.27;4.10;;;;;;;;;;5037694;28;20040;-59
2023/10/17 01:10:14;;;;;;;7.80;4.30;;;;;;;;;;5032206;28;20029;-59
2023/10/17 01:12:52;;;;;;;;;;;;;;;;;;5034421;28;20508;-59
2023/10/17 01:15:27;;;;;;;6.70;3.67;;;;;;;;;;5029315;28;19920;-59
2023/10/17 01:18:03;;;;;;;9.20;3.55;;;;;;;;;;5025480;28;20036;-59
2023/10/17 01:20:30;;;;;;;6.55;3.78;;;;;;;;;;5033835;28;20429;-58
2023/10/17 01:23:00;;;;;;;6.50;4.07;;;;;;;;;;5012467;28;20511;-59
2023/10/17 01:25:34;;;;;;;6.60;4.03;;;;;;;;;;5029476;28;20045;-60
2023/10/17 01:28:01;;;;;;;7.95;4.07;;;;;;;;;;5021206;28;20037;-58
2023/10/17 01:30:29;;;;;;;7.03;3.88;;;;;;;;;;5033404;28;20037;-60
2023/10/17 01:32:56;;;;;;;7.65;4.47;;;;;;;;;;5038182;28;20511;-59
2023/10/17 01:35:26;;;;;;;9.65;4.95;;;;;;;;;;5030256;28;20413;-59
2023/10/17 01:37:55;;;;;;;8.32;4.35;;;;;;;;;;5040907;28;20048;-59
2023/10/17 01:40:22;;;;;;;8.38;4.50;;;;;;;;;;5032615;28;20057;-58
2023/10/17 01:42:53;;;;;;;9.00;4.22;;;;;;;;;;5035334;28;20039;-58
2023/10/17 01:45:26;;;;;;;6.15;3.92;;;;;;;;;;5018801;28;20038;-60
2023/10/17 01:47:52;;;;;;;8.88;4.20;;;;;;;;;;5028621;28;20044;-59
2023/10/17 01:50:19;;;;;;;7.65;4.30;;;;;;;;;;5045796;28;20693;-59
2023/10/17 01:52:46;;;;;;;7.57;4.10;;;;;;;;;;5021175;28;20049;-58
2023/10/17 01:55:16;;;;;;;11.50;4.65;;;;;;;;;;5019120;28;20049;-60
2023/10/17 01:57:46;;;;;;;7.35;4.40;;;;;;;;;;5025866;28;20029;-59
2023/10/17 02:00:23;;;;;;;8.07;4.18;;;;;;;;;;5019532;28;20390;-58
2023/10/17 02:02:49;;;;;;;9.75;4.82;;;;;;;;;;5030602;28;20037;-59
2023/10/17 02:05:16;;;;;;;9.80;4.68;;;;;;;;;;5032177;28;20041;-58
2023/10/17 02:07:42;;;;;;;10.90;5.82;;;;;;;;;;5023461;28;20040;-58
2023/10/17 02:10:08;;;;;;;12.05;6.47;;;;;;;;;;5033558;28;20052;-58
2023/10/17 02:12:35;;;;;;;10.88;5.70;;;;;;;;;;5030069;28;20429;-59
2023/10/17 02:15:02;;;;;;;13.90;5.90;;;;;;;;;;5045000;28;20029;-58
2023/10/17 02:17:28;;;;;;;11.27;6.82;;;;;;;;;;5045116;28;20045;-58
2023/10/17 02:19:58;;;;;;;12.65;7.10;;;;;;;;;;5042002;28;20041;-59
2023/10/17 02:22:26;;;;;;;9.80;5.63;;;;;;;;;;5032786;28;20509;-58
2023/10/17 02:24:56;;;;;;;10.52;5.55;;;;;;;;;;5036864;28;20052;-59
2023/10/17 02:27:23;;;;;;;9.38;5.10;;;;;;;;;;5042571;28;20025;-60
2023/10/17 02:29:49;;;;;;;9.57;4.75;;;;;;;;;;5042386;28;20060;-59
2023/10/17 02:32:15;;;;;;;10.82;5.03;;;;;;;;;;5021374;28;20033;-57
2023/10/17 02:34:43;;;;;;;9.75;5.05;;;;;;;;;;5030445;28;20040;-59
2023/10/17 02:37:16;;;;;;;9.15;5.03;;;;;;;;;;5037182;28;20528;-59
2023/10/17 02:39:42;;;;;;;10.93;4.63;;;;;;;;;;5027730;28;20067;-58
2023/10/17 02:42:09;;;;;;;11.00;5.75;;;;;;;;;;5033871;28;20041;-59
2023/10/17 02:44:43;;;;;;;9.40;5.25;;;;;;;;;;5033544;28;20556;-58
2023/10/17 02:47:13;;;;;;;10.77;5.65;;;;;;;;;;5034334;28;20040;-59
2023/10/17 02:49:40;;;;;;;;;;;;;;;;;;5034503;28;20053;-59
2023/10/17 02:52:06;;;;;;;10.25;5.07;;;;;;;;;;5027335;28;19933;-59
2023/10/17 02:57:33;;;;;;;10.23;5.07;;;;;;;;;;5033290;28;20048;-58
2023/10/17 03:00:19;;;;;;;8.23;4.80;;;;;;;;;;5028710;28;20040;-59
2023/10/17 03:02:48;;;;;;;9.13;5.20;;;;;;;;;;5026125;28;20033;-59
2023/10/17 03:05:14;;;;;;;10.35;5.47;;;;;;;;;;5034860;28;20524;-58
2023/10/17 03:07:42;;;;;;;10.32;5.75;;;;;;;;;;5031107;28;20053;-59
2023/10/17 03:10:08;;;;;;;9.05;5.32;;;;;;;;;;5036299;28;20040;-58
2023/10/17 03:12:50;;;;;;;11.27;5.68;;;;;;;;;;5039432;28;20044;-59
2023/10/17 03:15:19;;;;;;;11.02;5.65;;;;;;;;;;5036882;28;20041;-59
2023/10/17 03:17:53;;;;;;;9.65;5.15;;;;;;;;;;5032773;28;20032;-58
2023/10/17 03:20:36;;;;;;;10.68;5.15;;;;;;;;;;5034561;28;20053;-58
2023/10/17 03:23:04;;;;;;;10.35;5.20;;;;;;;;;;5026724;28;20428;-58
2023/10/17 03:25:37;;;;;;;10.27;5.22;;;;;;;;;;5031397;28;20042;-58
2023/10/17 03:28:13;;;;;;;9.95;4.93;;;;;;;;;;5036779;28;20040;-58
2023/10/17 03:30:40;;;;;;;10.05;4.75;;;;;;;;;;5032187;28;20041;-57
2023/10/17 03:33:08;;;;;;;9.45;4.88;;;;;;;;;;5031109;28;20029;-59
2023/10/17 03:38:23;;;;;;;8.40;4.80;;;;;;;;;;5027575;28;20040;-59
2023/10/17 03:40:53;;;;;;;10.75;4.85;;;;;;;;;;5037284;28;20048;-58
2023/10/17 03:43:24;;;;;;;9.35;5.32;;;;;;;;;;5026353;28;20029;-59
2023/10/17 03:45:56;;;;;;;10.57;5.30;;;;;;;;;;5029911;28;20512;-59
2023/10/17 03:48:24;;;;;;;8.95;4.85;;;;;;;;;;5032083;28;20547;-59
2023/10/17 03:51:08;;;;;;;11.73;5.30;;;;;;;;;;5032017;28;20028;-59
2023/10/17 03:53:47;;;;;;;10.85;5.18;;;;;;;;;;5032349;28;20037;-59
2023/10/17 03:56:26;;;;;;;10.63;5.47;;;;;;;;;;5029492;28;20040;-58
2023/10/17 04:01:37;;;;;;;16.13;5.97;;;;;;;;;;5034429;28;20052;-58
2023/10/17 04:04:04;;;;;;;14.95;5.78;;;;;;;;;;5037803;28;20056;-59
2023/10/17 04:06:39;;;;;;;13.23;5.70;;;;;;;;;;5030350;28;20428;-58
2023/10/17 04:11:46;;;;;;;10.68;5.05;;;;;;;;;;5033647;28;20440;-58
2023/10/17 04:14:12;;;;;;;12.10;5.40;;;;;;;;;;5037144;28;20040;-59
2023/10/17 04:16:44;;;;;;;11.68;6.32;;;;;;;;;;5035624;28;20046;-58
2023/10/17 04:19:20;;;;;;;11.75;5.90;;;;;;;;;;5040016;28;20037;-60
2023/10/17 04:24:27;;;;;;;11.38;6.13;;;;;;;;;;5038035;28;20048;-60
2023/10/17 04:29:58;;;;;;;13.82;6.53;;;;;;;;;;5050919;28;20049;-59
2023/10/17 04:32:33;;;;;;;13.18;7.32;;;;;;;;;;5034020;28;20052;-59
2023/10/17 04:35:02;;;;;;;15.90;8.55;;;;;;;;;;5024732;28;20060;-60
2023/10/17 04:37:37;;;;;;;15.40;8.23;;;;;;;;;;5030237;28;20417;-59
2023/10/17 04:45:19;;;;;;;17.55;9.07;;;;;;;;;;5029422;28;20052;-60
2023/10/17 04:47:46;;;;;;;19.70;10.43;;;;;;;;;;5031458;28;20025;-60
2023/10/17 04:50:12;;;;;;;17.40;9.55;;;;;;;;;;5023830;28;20034;-59
2023/10/17 04:52:41;;;;;;;15.95;8.27;;;;;;;;;;5022072;28;20485;-60
2023/10/17 04:55:18;;;;;;;15.67;7.60;;;;;;;;;;5023904;28;20029;-59
2023/10/17 05:03:20;;;;;;;22.42;8.80;;;;;;;;;;5032826;28;20045;-59
2023/10/17 05:08:33;;;;;;;15.77;8.70;;;;;;;;;;5030028;28;20037;-58
2023/10/17 06:17:24;;;;;;;14.20;9.13;;;;;;;;;;5031354;28;20052;-59
2023/10/17 06:19:50;;;;;;;16.17;8.45;;;;;;;;;;5032859;28;20049;-60
2023/10/17 06:24:45;;;;;;;21.67;11.25;;;;;;;;;;5033706;28;20036;-60
2023/10/17 06:30:27;;;;;;;16.35;9.73;;;;;;;;;;5035786;28;20048;-59
2023/10/17 06:35:45;;;;;;;17.08;10.13;;;;;;;;;;5025979;28;20413;-59
2023/10/17 06:38:15;;;;;;;17.63;10.60;;;;;;;;;;5034867;28;20026;-59
2023/10/17 06:40:45;;;;;;;23.20;12.50;;;;;;;;;;5034136;28;20041;-60
2023/10/17 06:43:27;;;;;;;;;;;;;;;;;;5031084;28;20041;-60
2023/10/17 06:45:57;;;;;;;20.33;12.80;;;;;;;;;;5035395;28;19912;-61
2023/10/17 06:48:31;;;;;;;15.93;10.70;;;;;;;;;;5031046;28;20033;-59
2023/10/17 06:53:47;;;;;;;21.65;11.00;;;;;;;;;;5035214;28;20925;-59
2023/10/17 06:56:19;;;;;;;17.02;11.05;;;;;;;;;;5029790;28;20046;-59
2023/10/17 06:58:47;;;;;;;16.27;10.25;;;;;;;;;;5030668;28;20037;-59
2023/10/17 07:01:19;;;;;;;15.27;10.60;;;;;;;;;;5028798;28;20050;-59
2023/10/17 07:03:46;;;;;;;13.93;8.90;;;;;;;;;;5031685;28;20045;-60
2023/10/17 07:06:12;;;;;;;19.23;8.98;;;;;;;;;;5032828;28;20408;-60
2023/10/17 07:08:39;;;;;;;15.13;9.15;;;;;;;;;;5033212;28;20029;-59
2023/10/17 07:16:41;;;;;;;14.18;9.40;;;;;;;;;;5030816;28;20033;-59
2023/10/17 07:24:29;;;;;;;14.95;9.02;;;;;;;;;;5031719;28;20680;-59
2023/10/17 07:26:55;;;;;;;16.33;9.23;;;;;;;;;;5032956;28;20029;-60
2023/10/17 07:29:22;;;;;;;12.15;7.90;;;;;;;;;;5033156;28;20512;-59
2023/10/17 07:31:54;;;;;;;14.57;8.80;;;;;;;;;;5041426;28;20037;-60
2023/10/17 07:34:22;;;;;;;16.65;9.95;;;;;;;;;;5032617;28;20045;-59
2023/10/17 07:37:11;;;;;;;16.23;8.93;;;;;;;;;;5034978;28;20028;-59
2023/10/17 07:39:38;;;;;;;15.82;9.63;;;;;;;;;;5029965;28;20033;-60
2023/10/17 07:42:13;;;;;;;15.93;10.35;;;;;;;;;;5028681;28;20133;-59
2023/10/17 07:44:43;;;;;;;22.80;11.90;;;;;;;;;;5029536;28;20040;-60
2023/10/17 07:47:19;;;;;;;17.75;10.43;;;;;;;;;;5034475;28;20044;-60
2023/10/17 07:49:47;;;;;;;17.08;9.70;;;;;;;;;;5030830;28;20034;-59
2023/10/17 07:52:17;;;;;;;14.48;9.40;;;;;;;;;;5029157;28;20033;-58
2023/10/17 07:54:57;;;;;;;15.38;9.27;;;;;;;;;;5027609;28;20065;-59
2023/10/17 07:57:28;;;;;;;16.13;10.02;;;;;;;;;;5027700;28;20038;-59
2023/10/17 07:59:57;;;;;;;15.80;10.05;;;;;;;;;;5021200;28;20037;-59
2023/10/17 08:02:29;;;;;;;16.57;10.43;;;;;;;;;;5011644;28;20057;-60
2023/10/17 08:05:00;;;;;;;15.88;10.30;;;;;;;;;;5035450;28;20044;-59
2023/10/17 08:07:29;;;;;;;17.95;11.02;;;;;;;;;;5026625;28;20053;-60
2023/10/17 08:09:58;;;;;;;17.52;10.77;;;;;;;;;;5023100;28;20037;-60
2023/10/17 08:12:29;;;;;;;17.73;10.03;;;;;;;;;;5040035;28;20394;-60
2023/10/17 08:14:58;;;;;;;18.63;9.82;;;;;;;;;;5040657;28;20052;-60
2023/10/17 08:17:27;;;;;;;16.60;9.65;;;;;;;;;;5036969;28;20045;-60
2023/10/17 08:20:38;;;;;;;17.85;10.07;;;;;;;;;;5030180;28;20124;-59
2023/10/17 08:23:06;;;;;;;15.40;9.13;;;;;;;;;;5038815;28;20029;-59
2023/10/17 08:25:39;;;;;;;17.45;10.07;;;;;;;;;;5027019;28;20037;-60
2023/10/17 08:28:17;;;;;;;19.23;10.73;;;;;;;;;;5029321;28;20037;-60
2023/10/17 08:30:51;;;;;;;20.52;12.07;;;;;;;;;;5029571;28;20573;-60
2023/10/17 08:33:19;;;;;;;27.55;13.93;;;;;;;;;;5026101;28;20041;-59
2023/10/17 08:35:54;;;;;;;21.63;11.63;;;;;;;;;;5024467;28;20048;-60
2023/10/17 08:38:22;;;;;;;16.80;10.50;;;;;;;;;;5025997;28;20037;-58
2023/10/17 08:40:49;;;;;;;17.10;10.43;;;;;;;;;;5032892;28;20045;-59
2023/10/17 08:43:19;;;;;;;16.60;9.77;;;;;;;;;;5020719;28;20033;-58
2023/10/17 08:45:47;;;;;;;15.55;9.40;;;;;;;;;;5028882;28;20045;-59
2023/10/17 08:48:14;;;;;;;18.00;9.90;;;;;;;;;;5035303;28;20051;-58
2023/10/17 08:50:40;;;;;;;18.35;10.00;;;;;;;;;;5026267;28;20045;-59
2023/10/17 08:53:13;;;;;;;19.15;10.98;;;;;;;;;;5025558;28;20033;-59
2023/10/17 08:55:40;;;;;;;16.42;10.10;;;;;;;;;;5027242;28;20525;-59
2023/10/17 08:58:09;;;;;;;17.42;9.57;;;;;;;;;;5023797;28;20048;-59
2023/10/17 09:03:35;;;;;;;17.48;9.70;;;;;;;;;;5017738;28;20043;-59
2023/10/17 09:06:55;;;;;;;17.70;9.60;;;;;;;;;;5022622;28;20029;-59
2023/10/17 09:11:34;;;;;;;14.32;8.80;;;;;;;;;;5025354;28;20056;-59
2023/10/17 09:14:17;;;;;;;14.98;8.48;;;;;;;;;;5028074;28;20048;-59
2023/10/17 09:16:51;;;;;;;14.98;8.50;;;;;;;;;;5031504;28;20516;-59
2023/10/17 09:19:21;;;;;;;14.65;8.98;;;;;;;;;;5027193;28;20041;-58
2023/10/17 09:21:49;;;;;;;15.55;8.45;;;;;;;;;;5028554;28;20040;-59
2023/10/17 09:24:36;;;;;;;13.55;8.40;;;;;;;;;;5027552;28;20040;-59
2023/10/17 09:27:06;;;;;;;15.45;9.40;;;;;;;;;;5022458;28;20049;-59
2023/10/17 09:29:51;;;;;;;15.15;8.15;;;;;;;;;;5026680;28;20037;-59
2023/10/17 09:32:34;;;;;;;14.20;8.60;;;;;;;;;;5024096;28;20445;-59
2023/10/17 09:35:14;;;;;;;15.05;9.25;;;;;;;;;;5027446;28;20037;-58
2023/10/17 09:37:42;;;;;;;15.23;8.98;;;;;;;;;;5035212;28;20053;-59
2023/10/17 09:40:13;;;;;;;14.05;8.43;;;;;;;;;;5026216;28;20042;-59
2023/10/17 09:42:44;;;;;;;15.63;9.02;;;;;;;;;;5023543;28;20413;-59
2023/10/17 09:45:12;;;;;;;13.77;8.57;;;;;;;;;;5029839;28;20643;-58
2023/10/17 09:47:44;;;;;;;13.95;8.85;;;;;;;;;;5026743;28;20041;-59
2023/10/17 09:50:20;;;;;;;14.00;8.20;;;;;;;;;;5023361;28;20413;-59
2023/10/17 09:52:51;;;;;;;12.68;8.20;;;;;;;;;;5035587;28;20048;-59
2023/10/17 09:55:18;;;;;;;12.80;8.00;;;;;;;;;;5025323;28;20029;-59
2023/10/17 09:57:50;;;;;;;15.25;8.43;;;;;;;;;;5033404;28;20044;-59
2023/10/17 10:00:27;;;;;;;12.23;7.20;;;;;;;;;;5025454;28;20085;-59
2023/10/17 10:02:55;;;;;;;12.65;7.80;;;;;;;;;;5023509;28;20033;-59
2023/10/17 10:05:28;;;;;;;13.35;7.82;;;;;;;;;;5028974;28;20040;-59
2023/10/17 10:08:14;;;;;;;15.00;8.18;;;;;;;;;;5032351;28;20025;-60
2023/10/17 10:10:53;;;;;;;14.90;8.27;;;;;;;;;;5031170;28;20061;-60
2023/10/17 10:13:20;;;;;;;12.32;8.02;;;;;;;;;;5039262;28;20088;-58
2023/10/17 10:15:50;;;;;;;15.82;8.30;;;;;;;;;;5026114;28;20044;-59
2023/10/17 10:18:16;;;;;;;15.00;7.80;;;;;;;;;;5026858;28;20041;-59
2023/10/17 10:20:55;;;;;;;12.52;8.82;;;;;;;;;;5026700;28;20413;-59
2023/10/17 10:23:34;;;;;;;12.55;8.55;;;;;;;;;;5027992;28;20456;-60
2023/10/17 10:26:19;;;;;;;12.25;8.30;;;;;;;;;;5033890;28;20373;-60
2023/10/17 10:28:49;;;;;;;13.30;8.32;;;;;;;;;;5034309;28;20045;-60
2023/10/17 10:31:21;;;;;;;11.95;8.13;;;;;;;;;;5033430;28;20049;-59
2023/10/17 10:33:52;;;;;;;14.82;9.10;;;;;;;;;;5035142;28;20048;-60
2023/10/17 10:36:19;;;;;;;14.00;8.90;;;;;;;;;;5042844;28;20049;-60
2023/10/17 10:38:45;;;;;;;15.40;9.93;;;;;;;;;;5034896;28;20033;-59
2023/10/17 10:41:13;;;;;;;15.30;9.05;;;;;;;;;;5031937;28;20060;-58
2023/10/17 10:43:40;;;;;;;14.35;9.45;;;;;;;;;;5027886;28;20037;-59
2023/10/17 10:46:10;;;;;;;12.57;8.63;;;;;;;;;;5029624;28;20382;-59
2023/10/17 10:48:46;;;;;;;12.98;8.80;;;;;;;;;;5037004;28;20036;-59
2023/10/17 10:51:18;;;;;;;13.23;8.20;;;;;;;;;;5033909;28;20053;-60
2023/10/17 10:53:46;;;;;;;13.73;9.20;;;;;;;;;;5025136;28;20034;-59
2023/10/17 10:56:13;;;;;;;14.30;9.95;;;;;;;;;;5031876;28;20049;-59
2023/10/17 10:58:55;;;;;;;13.82;9.20;;;;;;;;;;5031770;28;20049;-60
2023/10/17 11:01:22;;;;;;;15.50;10.02;;;;;;;;;;5021588;28;20040;-59
2023/10/17 11:03:50;;;;;;;14.30;9.45;;;;;;;;;;5030303;28;20045;-60
2023/10/17 11:06:23;;;;;;;14.85;9.63;;;;;;;;;;5037268;28;20029;-60
2023/10/17 11:08:50;;;;;;;13.60;9.43;;;;;;;;;;5038982;28;20440;-59
2023/10/17 11:11:16;;;;;;;15.55;9.95;;;;;;;;;;5031034;28;20485;-59
2023/10/17 11:13:47;;;;;;;13.07;9.30;;;;;;;;;;5031208;28;20128;-59
2023/10/17 11:16:17;;;;;;;14.10;10.18;;;;;;;;;;5036119;28;20709;-59
2023/10/17 11:18:43;;;;;;;13.02;10.05;;;;;;;;;;5037825;28;20049;-59
2023/10/17 11:21:10;;;;;;;13.73;10.00;;;;;;;;;;5030490;28;20632;-60
2023/10/17 11:23:46;;;;;;;15.52;9.93;;;;;;;;;;5031638;28;20048;-59
2023/10/17 11:26:17;;;;;;;15.15;10.07;;;;;;;;;;5029803;28;20061;-60
2023/10/17 11:28:46;;;;;;;14.18;9.60;;;;;;;;;;5034180;28;20405;-60
2023/10/17 11:31:21;;;;;;;16.60;9.98;;;;;;;;;;5035416;28;20041;-60
2023/10/17 11:33:54;;;;;;;17.25;12.00;;;;;;;;;;5032380;28;20041;-60
2023/10/17 11:36:22;;;;;;;15.55;11.27;;;;;;;;;;5033711;28;20056;-60
2023/10/17 11:38:57;;;;;;;18.08;10.43;;;;;;;;;;5030420;28;20540;-60
2023/10/17 11:41:39;;;;;;;19.25;10.57;;;;;;;;;;5030032;28;20049;-59
2023/10/17 11:44:09;;;;;;;15.40;10.30;;;;;;;;;;5027468;28;20501;-60
2023/10/17 11:46:37;;;;;;;17.02;11.10;;;;;;;;;;5034947;28;20036;-59
2023/10/17 11:49:28;;;;;;;16.27;10.50;;;;;;;;;;5024257;28;20053;-57
2023/10/17 11:52:12;;;;;;;15.20;10.50;;;;;;;;;;5028617;28;20040;-58
2023/10/17 11:55:00;;;;;;;14.95;10.32;;;;;;;;;;5028312;28;20045;-58
2023/10/17 11:57:28;;;;;;;17.90;10.80;;;;;;;;;;5024907;28;20045;-57
2023/10/17 11:59:58;;;;;;;16.90;10.05;;;;;;;;;;5029590;28;20983;-59
2023/10/17 12:02:25;;;;;;;15.98;10.63;;;;;;;;;;5038085;28;20048;-59
2023/10/17 12:04:53;;;;;;;18.10;10.85;;;;;;;;;;5029359;28;20033;-59
2023/10/17 12:07:19;;;;;;;14.27;9.70;;;;;;;;;;5030887;28;20046;-59
2023/10/17 12:09:45;;;;;;;17.65;11.25;;;;;;;;;;5028285;28;20045;-59
2023/10/17 12:12:12;;;;;;;15.60;10.57;;;;;;;;;;5030473;28;20034;-59
2023/10/17 12:14:38;;;;;;;14.80;10.35;;;;;;;;;;5031962;28;20060;-59
2023/10/17 12:17:08;;;;;;;19.13;10.52;;;;;;;;;;5031048;28;20052;-59
2023/10/17 12:19:34;;;;;;;15.30;10.35;;;;;;;;;;5030670;28;20401;-60
2023/10/17 12:22:00;;;;;;;14.95;10.43;;;;;;;;;;5026556;28;20029;-59
2023/10/17 12:24:34;;;;;;;11.25;6.72;;;;;;;;;;5029335;28;20049;-59
2023/10/17 12:27:01;;;;;;;8.15;4.43;;;;;;;;;;5029519;28;20048;-58
2023/10/17 12:29:29;;;;;;;9.77;4.82;;;;;;;;;;5030636;28;20045;-58
2023/10/17 12:31:59;;;;;;;9.57;5.68;;;;;;;;;;5033193;28;20037;-58
2023/10/17 12:34:27;;;;;;;7.00;5.35;;;;;;;;;;5036612;28;20037;-58
2023/10/17 12:36:54;;;;;;;9.60;6.00;;;;;;;;;;5031277;28;20044;-59
2023/10/17 12:39:21;;;;;;;9.82;6.50;;;;;;;;;;5029552;28;20056;-59
2023/10/17 12:41:48;;;;;;;9.63;5.88;;;;;;;;;;5032770;28;20084;-59
2023/10/17 12:44:15;;;;;;;13.25;10.07;;;;;;;;;;5027371;28;20033;-59
2023/10/17 12:46:41;;;;;;;13.60;10.15;;;;;;;;;;5032072;28;20056;-60
2023/10/17 12:49:10;;;;;;;16.23;10.35;;;;;;;;;;5027922;28;20118;-59
2023/10/17 12:51:41;;;;;;;15.32;10.20;;;;;;;;;;5026557;28;20056;-59
2023/10/17 12:54:08;;;;;;;15.82;10.10;;;;;;;;;;5028721;28;20085;-59
2023/10/17 12:56:36;;;;;;;15.55;10.55;;;;;;;;;;5020746;28;20408;-59
2023/10/17 12:59:03;;;;;;;15.90;11.43;;;;;;;;;;5016957;28;20421;-59
2023/10/17 13:01:30;;;;;;;16.95;11.25;;;;;;;;;;5025200;28;20034;-59
2023/10/17 13:03:59;;;;;;;15.55;10.63;;;;;;;;;;5026833;28;20412;-60
2023/10/17 13:06:26;;;;;;;16.45;10.23;;;;;;;;;;5026602;28;20045;-58
2023/10/17 13:08:56;;;;;;;17.52;10.48;;;;;;;;;;5027919;28;20044;-59
2023/10/17 13:11:26;;;;;;;17.35;10.68;;;;;;;;;;5028667;28;20033;-59
2023/10/17 13:13:53;;;;;;;17.05;10.52;;;;;;;;;;5026605;28;20049;-58
2023/10/17 13:16:21;;;;;;;14.45;10.15;;;;;;;;;;5027883;28;20507;-60
2023/10/17 13:18:47;;;;;;;16.60;11.02;;;;;;;;;;5026439;28;20405;-59
2023/10/17 13:21:14;;;;;;;13.73;10.15;;;;;;;;;;5026602;28;20049;-59
2023/10/17 13:23:42;;;;;;;16.38;10.57;;;;;;;;;;5025233;28;20037;-59
2023/10/17 13:26:11;;;;;;;16.20;10.38;;;;;;;;;;5026696;28;20067;-59
2023/10/17 13:28:39;;;;;;;16.98;10.80;;;;;;;;;;5021917;28;20045;-60
2023/10/17 13:31:11;;;;;;;17.65;10.20;;;;;;;;;;5027679;28;20025;-60
2023/10/17 13:33:38;;;;;;;14.98;10.50;;;;;;;;;;5027265;28;20049;-58
2023/10/17 13:36:12;;;;;;;14.45;10.32;;;;;;;;;;5021555;28;20033;-60
2023/10/17 13:38:40;;;;;;;13.93;10.50;;;;;;;;;;5023858;28;20053;-57
2023/10/17 13:41:09;;;;;;;20.52;10.65;;;;;;;;;;5027703;28;20060;-58
2023/10/17 13:43:39;;;;;;;16.92;9.88;;;;;;;;;;5026776;28;20064;-59
2023/10/17 13:46:08;;;;;;;19.92;11.95;;;;;;;;;;5021042;28;20026;-59
2023/10/17 13:48:35;;;;;;;18.38;11.77;;;;;;;;;;5027831;28;20618;-59
2023/10/17 13:51:06;;;;;;;14.90;10.07;;;;;;;;;;5020506;28;20405;-59
2023/10/17 13:53:36;;;;;;;15.90;10.75;;;;;;;;;;5025542;28;20673;-58
2023/10/17 13:56:07;;;;;;;14.57;10.15;;;;;;;;;;5023809;28;20048;-59
2023/10/17 13:58:38;;;;;;;17.25;10.27;;;;;;;;;;5026851;28;20041;-60
2023/10/17 14:01:27;;;;;;;15.02;9.65;;;;;;;;;;5024539;28;20040;-60
2023/10/17 14:03:51;;;;;;;8.95;5.60;;;;;;;;;;5025625;28;20068;-58
2023/10/17 14:06:17;;;;;;;9.05;5.30;;;;;;;;;;5027730;28;20041;-59
2023/10/17 14:08:44;;;;;;;9.70;5.82;;;;;;;;;;5026742;28;20421;-59
2023/10/17 14:11:17;;;;;;;8.43;5.75;;;;;;;;;;5027912;28;20460;-58
2023/10/17 14:13:45;;;;;;;9.20;6.50;;;;;;;;;;5024864;28;20497;-58
2023/10/17 14:16:11;;;;;;;10.35;6.95;;;;;;;;;;5025422;28;20053;-60
2023/10/17 14:18:43;;;;;;;10.07;6.65;;;;;;;;;;5027237;28;20034;-59
2023/10/17 14:24:10;;;;;;;15.13;10.00;;;;;;;;;;5027477;28;20109;-58
2023/10/17 14:26:37;;;;;;;8.40;5.90;;;;;;;;;;5026550;28;20113;-58
2023/10/17 14:29:04;;;;;;;13.70;9.40;;;;;;;;;;5024392;28;20041;-59
2023/10/17 14:31:30;;;;;;;14.05;10.20;;;;;;;;;;5027584;28;20060;-59
2023/10/17 14:33:58;;;;;;;13.93;9.65;;;;;;;;;;5025503;28;20048;-59
2023/10/17 14:36:27;;;;;;;18.45;10.48;;;;;;;;;;5026682;28;20520;-58
2023/10/17 14:38:54;;;;;;;15.43;10.20;;;;;;;;;;5024967;28;20029;-58
2023/10/17 14:41:24;;;;;;;17.50;10.65;;;;;;;;;;5024281;28;20402;-58
2023/10/17 14:43:51;;;;;;;15.00;10.65;;;;;;;;;;5026075;28;20539;-58
2023/10/17 14:46:20;;;;;;;14.07;9.25;;;;;;;;;;5025418;28;20662;-60
2023/10/17 14:48:47;;;;;;;17.50;9.80;;;;;;;;;;5020045;28;20040;-60
2023/10/17 14:51:14;;;;;;;14.23;9.65;;;;;;;;;;5017846;28;20508;-60
2023/10/17 14:53:46;;;;;;;24.08;11.25;;;;;;;;;;5004667;28;20034;-58
2023/10/17 14:56:12;;;;;;;19.67;11.88;;;;;;;;;;5027082;28;20053;-59
2023/10/17 14:58:46;;;;;;;18.88;10.90;;;;;;;;;;5026053;28;20516;-59
2023/10/17 15:01:12;;;;;;;21.58;14.00;;;;;;;;;;5020880;28;20071;-59
2023/10/17 15:03:39;;;;;;;26.63;17.00;;;;;;;;;;5026403;28;20078;-60
2023/10/17 15:06:09;;;;;;;32.50;22.75;;;;;;;;;;5020924;28;20029;-60
2023/10/17 15:08:36;;;;;;;42.10;27.63;;;;;;;;;;5028921;28;20424;-60
2023/10/17 15:11:06;;;;;;;20.38;13.93;;;;;;;;;;5030680;28;20033;-57
2023/10/17 15:13:33;;;;;;;17.42;11.52;;;;;;;;;;5028241;28;20041;-59
2023/10/17 15:16:02;;;;;;;17.77;12.68;;;;;;;;;;5027867;28;20374;-61
2023/10/17 15:18:30;;;;;;;22.38;13.25;;;;;;;;;;5029847;28;20036;-60
2023/10/17 15:21:08;;;;;;;18.00;11.20;;;;;;;;;;5029738;28;20080;-58
2023/10/17 15:23:35;;;;;;;15.95;10.07;;;;;;;;;;5029283;28;20049;-60
2023/10/17 15:26:02;;;;;;;15.27;11.70;;;;;;;;;;5026573;28;20036;-60
2023/10/17 15:28:29;;;;;;;20.50;14.05;;;;;;;;;;5029780;28;20064;-60
2023/10/17 15:31:09;;;;;;;17.63;11.23;;;;;;;;;;5030923;28;20053;-59
2023/10/17 15:33:37;;;;;;;;;;;;;;;;;;5029841;28;20037;-61
2023/10/17 15:36:05;;;;;;;19.52;11.80;;;;;;;;;;5028424;28;19913;-59
2023/10/17 15:38:32;;;;;;;16.45;10.88;;;;;;;;;;5029918;28;20038;-59
2023/10/17 15:41:00;;;;;;;21.80;11.32;;;;;;;;;;5026690;28;20441;-59
2023/10/17 15:43:26;;;;;;;18.30;11.18;;;;;;;;;;5029113;28;20461;-60
2023/10/17 15:45:54;;;;;;;20.75;12.80;;;;;;;;;;5028066;28;20034;-59
2023/10/17 15:48:23;;;;;;;20.02;12.45;;;;;;;;;;5025368;28;20030;-59
2023/10/17 15:50:50;;;;;;;20.67;11.23;;;;;;;;;;5026886;28;20128;-59
2023/10/17 15:53:17;;;;;;;18.35;11.23;;;;;;;;;;5029614;28;20615;-59
2023/10/17 15:55:54;;;;;;;17.27;10.68;;;;;;;;;;5027174;28;20041;-60
2023/10/17 15:58:26;;;;;;;20.48;13.05;;;;;;;;;;5029606;28;20401;-59
2023/10/17 16:00:53;;;;;;;23.58;15.07;;;;;;;;;;5028702;28;20046;-59
2023/10/17 16:03:20;;;;;;;24.27;15.00;;;;;;;;;;5029076;28;20038;-60
2023/10/17 16:05:51;;;;;;;27.42;16.83;;;;;;;;;;5025614;28;20170;-60
2023/10/17 16:08:18;;;;;;;22.35;14.88;;;;;;;;;;5029022;28;20437;-60
2023/10/17 16:10:45;;;;;;;21.80;13.48;;;;;;;;;;5028686;28;20052;-59
2023/10/17 16:13:12;;;;;;;21.48;13.93;;;;;;;;;;5028882;28;20033;-59
2023/10/17 16:15:39;;;;;;;22.90;13.60;;;;;;;;;;5025683;28;20057;-59
2023/10/17 16:18:06;;;;;;;19.73;13.20;;;;;;;;;;5028372;28;20033;-59
2023/10/17 16:20:34;;;;;;;24.45;15.50;;;;;;;;;;5028714;28;20041;-60
2023/10/17 16:23:00;;;;;;;23.15;13.90;;;;;;;;;;5028380;28;20050;-59
2023/10/17 16:25:29;;;;;;;19.90;13.38;;;;;;;;;;5027090;28;20049;-61
2023/10/17 16:27:55;;;;;;;20.73;13.43;;;;;;;;;;5027409;28;20530;-62
2023/10/17 16:30:22;;;;;;;37.38;18.98;;;;;;;;;;5028958;28;20480;-59
2023/10/17 16:32:48;;;;;;;44.58;23.27;;;;;;;;;;5028275;28;20428;-59
2023/10/17 16:35:19;;;;;;;38.22;19.20;;;;;;;;;;5027249;28;20050;-59
2023/10/17 16:37:46;;;;;;;;;;;;;;;;;;5018470;28;20060;-59
2023/10/17 16:40:14;;;;;;;;;;;;;;;;;;5028950;28;19943;-59
2023/10/17 16:42:44;;;;;;;;;;;;;;;;;;5024161;28;19917;-59
2023/10/17 16:45:11;;;;;;;;;;;;;;;;;;5021766;28;19920;-59
2023/10/17 16:47:37;;;;;;;;;;;;;;;;;;5018960;28;19913;-61
2023/10/17 16:50:05;;;;;;;;;;;;;;;;;;5028476;28;20249;-59
2023/10/17 16:52:31;;;;;;;;;;;;;;;;;;5026133;28;19920;-60
2023/10/17 16:54:58;;;;;;;;;;;;;;;;;;5024042;28;19913;-59
2023/10/17 16:57:24;;;;;;;;;;;;;;;;;;5026745;28;19932;-59
2023/10/17 16:59:51;;;;;;;;;;;;;;;;;;5025976;28;19952;-58
2023/10/17 17:02:18;;;;;;;;;;;;;;;;;;5028504;28;19923;-59
2023/10/17 17:04:44;;;;;;;;;;;;;;;;;;5024956;28;19914;-60